createdAt,value
2017-04-21T00:00:29.258Z,7.90
2017-04-21T00:01:28.217Z,7.90
2017-04-21T00:02:27.139Z,7.80
2017-04-21T00:03:26.068Z,7.80
2017-04-21T00:04:25.104Z,7.80
2017-04-21T00:05:24.027Z,7.80
2017-04-21T00:06:22.968Z,7.80
2017-04-21T00:07:21.917Z,7.80
2017-04-21T00:08:20.841Z,7.80
2017-04-21T00:09:19.759Z,7.80
2017-04-21T00:10:18.704Z,7.70
2017-04-21T00:11:17.615Z,7.70
2017-04-21T00:12:16.538Z,7.70
2017-04-21T00:13:15.495Z,7.60
2017-04-21T00:14:14.428Z,7.60
2017-04-21T00:15:13.524Z,7.60
2017-04-21T00:16:12.516Z,7.60
2017-04-21T00:17:11.412Z,7.60
2017-04-21T00:18:10.333Z,7.50
2017-04-21T00:19:09.269Z,7.50
2017-04-21T00:20:08.964Z,7.50
2017-04-21T00:21:07.913Z,7.50
2017-04-21T00:22:06.891Z,7.50
2017-04-21T00:23:05.808Z,7.50
2017-04-21T00:24:04.740Z,7.50
2017-04-21T00:25:03.658Z,7.50
2017-04-21T00:26:02.588Z,7.60
2017-04-21T00:27:01.516Z,7.60
2017-04-21T00:28:00.458Z,7.50
2017-04-21T00:28:59.401Z,7.60
2017-04-21T00:29:58.337Z,7.60
2017-04-21T00:30:57.284Z,7.60
2017-04-21T00:31:56.209Z,7.60
2017-04-21T00:32:55.170Z,7.60
2017-04-21T00:33:54.128Z,7.60
2017-04-21T00:34:53.040Z,7.60
2017-04-21T00:35:51.980Z,7.50
2017-04-21T00:36:51.012Z,7.50
2017-04-21T00:37:50.715Z,7.50
2017-04-21T00:38:49.641Z,7.60
2017-04-21T00:39:48.579Z,7.60
2017-04-21T00:40:47.504Z,7.60
2017-04-21T00:41:46.420Z,7.60
2017-04-21T00:42:45.373Z,7.50
2017-04-21T00:43:44.270Z,7.60
2017-04-21T00:44:43.195Z,7.60
2017-04-21T00:45:42.193Z,7.60
2017-04-21T00:46:41.128Z,7.60
2017-04-21T00:47:40.064Z,7.70
2017-04-21T00:48:38.995Z,7.70
2017-04-21T00:49:37.924Z,7.70
2017-04-21T00:50:36.836Z,7.70
2017-04-21T00:51:35.869Z,7.70
2017-04-21T00:52:34.831Z,7.70
2017-04-21T00:53:33.773Z,7.70
2017-04-21T00:54:32.740Z,7.70
2017-04-21T00:55:31.696Z,7.70
2017-04-21T00:56:31.469Z,7.70
2017-04-21T00:57:30.587Z,7.70
2017-04-21T00:58:29.529Z,7.80
2017-04-21T00:59:28.459Z,7.70
2017-04-21T01:00:27.376Z,7.70
2017-04-21T01:01:26.290Z,7.70
2017-04-21T01:02:25.203Z,7.70
2017-04-21T01:03:24.154Z,7.70
2017-04-21T01:04:23.056Z,7.70
2017-04-21T01:05:21.980Z,7.70
2017-04-21T01:06:20.908Z,7.70
2017-04-21T01:07:20.560Z,7.70
2017-04-21T01:08:19.642Z,7.80
2017-04-21T01:09:18.569Z,7.80
2017-04-21T01:10:17.515Z,7.80
2017-04-21T01:11:16.447Z,7.80
2017-04-21T01:12:15.357Z,7.80
2017-04-21T01:13:14.305Z,7.80
2017-04-21T01:14:13.992Z,7.70
2017-04-21T01:15:13.668Z,7.70
2017-04-21T01:16:12.555Z,7.80
2017-04-21T01:17:11.452Z,7.80
2017-04-21T01:18:10.408Z,7.80
2017-04-21T01:19:09.362Z,7.80
2017-04-21T01:20:08.342Z,7.80
2017-04-21T01:21:07.334Z,7.80
2017-04-21T01:22:06.388Z,7.80
2017-04-21T01:23:05.413Z,7.70
2017-04-21T01:24:04.440Z,7.70
2017-04-21T01:25:03.362Z,7.70
2017-04-21T01:26:02.342Z,7.70
2017-04-21T01:27:01.284Z,7.80
2017-04-21T01:28:00.200Z,7.70
2017-04-21T01:28:59.308Z,7.70
2017-04-21T01:29:58.292Z,7.70
2017-04-21T01:30:57.229Z,7.70
2017-04-21T01:31:56.876Z,7.70
2017-04-21T01:32:55.800Z,7.70
2017-04-21T01:33:55.452Z,7.70
2017-04-21T01:34:54.380Z,7.80
2017-04-21T01:35:54.045Z,7.70
2017-04-21T01:36:53.065Z,7.80
2017-04-21T01:37:52.776Z,7.70
2017-04-21T01:38:51.800Z,7.80
2017-04-21T01:39:50.711Z,7.80
2017-04-21T01:40:49.614Z,7.80
2017-04-21T01:41:48.583Z,7.80
2017-04-21T01:42:47.501Z,7.80
2017-04-21T01:43:46.535Z,7.80
2017-04-21T01:44:45.495Z,7.90
2017-04-21T01:45:44.395Z,7.80
2017-04-21T01:46:43.317Z,7.90
2017-04-21T01:47:42.212Z,7.90
2017-04-21T01:48:41.153Z,7.90
2017-04-21T01:49:40.087Z,7.90
2017-04-21T01:50:39.031Z,7.90
2017-04-21T01:51:37.948Z,7.90
2017-04-21T01:52:36.884Z,7.90
2017-04-21T01:53:36.576Z,7.80
2017-04-21T01:54:35.525Z,7.90
2017-04-21T01:55:34.432Z,7.80
2017-04-21T01:56:33.592Z,7.80
2017-04-21T01:57:32.516Z,7.90
2017-04-21T01:58:31.436Z,7.80
2017-04-21T01:59:30.348Z,7.90
2017-04-21T02:00:29.336Z,7.80
2017-04-21T02:01:28.229Z,7.80
2017-04-21T02:02:27.158Z,7.80
2017-04-21T02:03:26.156Z,7.80
2017-04-21T02:04:25.084Z,7.80
2017-04-21T02:05:24.084Z,7.80
2017-04-21T02:06:22.988Z,7.90
2017-04-21T02:07:21.954Z,7.90
2017-04-21T02:08:20.896Z,7.90
2017-04-21T02:09:19.859Z,7.90
2017-04-21T02:10:18.828Z,7.90
2017-04-21T02:11:17.759Z,7.90
2017-04-21T02:12:16.682Z,7.90
2017-04-21T02:13:15.571Z,7.90
2017-04-21T02:14:14.519Z,7.90
2017-04-21T02:15:13.448Z,7.90
2017-04-21T02:16:12.348Z,8.00
2017-04-21T02:17:11.241Z,8.00
2017-04-21T02:18:10.906Z,7.90
2017-04-21T02:19:09.984Z,8.00
2017-04-21T02:20:09.000Z,8.00
2017-04-21T02:21:07.939Z,8.00
2017-04-21T02:22:06.842Z,8.00
2017-04-21T02:23:05.822Z,8.00
2017-04-21T02:24:04.746Z,8.00
2017-04-21T02:25:03.656Z,8.00
2017-04-21T02:26:02.756Z,7.90
2017-04-21T02:27:01.745Z,8.00
2017-04-21T02:28:00.677Z,8.00
2017-04-21T02:28:59.596Z,7.90
2017-04-21T02:29:58.519Z,7.90
2017-04-21T02:30:58.209Z,7.90
2017-04-21T02:31:57.149Z,8.00
2017-04-21T02:32:56.088Z,8.00
2017-04-21T02:33:54.993Z,7.90
2017-04-21T02:34:53.940Z,8.00
2017-04-21T02:35:52.864Z,7.90
2017-04-21T02:36:51.759Z,7.90
2017-04-21T02:37:50.696Z,7.90
2017-04-21T02:38:49.608Z,8.00
2017-04-21T02:39:48.515Z,8.00
2017-04-21T02:40:47.455Z,8.00
2017-04-21T02:41:46.389Z,8.00
2017-04-21T02:42:45.323Z,7.90
2017-04-21T02:43:44.276Z,7.90
2017-04-21T02:44:43.208Z,7.90
2017-04-21T02:45:42.133Z,7.90
2017-04-21T02:46:41.052Z,7.90
2017-04-21T02:47:39.979Z,7.80
2017-04-21T02:48:38.883Z,7.80
2017-04-21T02:49:38.570Z,7.70
2017-04-21T02:50:38.264Z,7.70
2017-04-21T02:51:37.189Z,7.70
2017-04-21T02:52:36.163Z,7.80
2017-04-21T02:53:35.117Z,7.70
2017-04-21T02:54:34.934Z,7.70
2017-04-21T02:55:33.928Z,7.80
2017-04-21T02:56:33.638Z,7.70
2017-04-21T02:57:32.732Z,7.80
2017-04-21T02:58:31.692Z,7.80
2017-04-21T02:59:30.610Z,7.80
2017-04-21T03:00:29.531Z,7.80
2017-04-21T03:01:28.519Z,7.70
2017-04-21T03:02:28.179Z,7.70
2017-04-21T03:03:27.107Z,7.70
2017-04-21T03:04:26.039Z,7.80
2017-04-21T03:05:24.967Z,7.70
2017-04-21T03:06:23.889Z,7.70
2017-04-21T03:07:22.827Z,7.70
2017-04-21T03:08:21.736Z,7.60
2017-04-21T03:09:20.736Z,7.60
2017-04-21T03:10:19.760Z,7.50
2017-04-21T03:11:18.752Z,7.50
2017-04-21T03:12:17.675Z,7.50
2017-04-21T03:13:16.615Z,7.50
2017-04-21T03:14:15.524Z,7.50
2017-04-21T03:15:14.453Z,7.50
2017-04-21T03:16:13.364Z,7.50
2017-04-21T03:17:12.288Z,7.50
2017-04-21T03:18:11.201Z,7.40
2017-04-21T03:20:09.522Z,7.50
2017-04-21T03:21:08.460Z,7.50
2017-04-21T03:22:07.412Z,7.40
2017-04-21T03:23:06.324Z,7.50
2017-04-21T03:24:05.248Z,7.50
2017-04-21T03:25:04.241Z,7.50
2017-04-21T03:26:03.164Z,7.50
2017-04-21T03:27:02.085Z,7.50
2017-04-21T03:28:01.020Z,7.50
2017-04-21T03:28:59.985Z,7.50
2017-04-21T03:29:58.892Z,7.50
2017-04-21T03:30:57.819Z,7.50
2017-04-21T03:31:56.768Z,7.50
2017-04-21T03:32:56.545Z,7.40
2017-04-21T03:33:55.525Z,7.50
2017-04-21T03:34:54.435Z,7.50
2017-04-21T03:35:53.360Z,7.50
2017-04-21T03:36:52.325Z,7.50
2017-04-21T03:37:51.264Z,7.50
2017-04-21T03:38:50.202Z,7.50
2017-04-21T03:39:49.133Z,7.60
2017-04-21T03:40:48.086Z,7.50
2017-04-21T03:41:47.000Z,7.50
2017-04-21T03:42:45.951Z,7.60
2017-04-21T03:43:44.895Z,7.60
2017-04-21T03:44:43.843Z,7.60
2017-04-21T03:46:42.023Z,7.50
2017-04-21T03:47:41.708Z,7.40
2017-04-21T03:48:40.641Z,7.50
2017-04-21T03:49:39.650Z,7.50
2017-04-21T03:50:38.604Z,7.50
2017-04-21T03:51:37.614Z,7.50
2017-04-21T03:52:36.596Z,7.50
2017-04-21T03:53:35.516Z,7.50
2017-04-21T03:54:34.476Z,7.50
2017-04-21T03:55:33.850Z,7.50
2017-04-21T03:56:33.043Z,7.50
2017-04-21T03:57:32.000Z,7.50
2017-04-21T03:58:30.921Z,7.50
2017-04-21T03:59:29.815Z,7.50
2017-04-21T04:00:29.511Z,7.50
2017-04-21T04:01:29.243Z,7.50
2017-04-21T04:02:28.152Z,7.50
2017-04-21T04:03:27.063Z,7.50
2017-04-21T04:04:25.976Z,7.50
2017-04-21T04:05:24.967Z,7.50
2017-04-21T04:06:23.907Z,7.50
2017-04-21T04:07:23.568Z,7.50
2017-04-21T04:08:22.492Z,7.50
2017-04-21T04:09:21.448Z,7.60
2017-04-21T04:10:20.420Z,7.60
2017-04-21T04:11:19.344Z,7.60
2017-04-21T04:12:18.296Z,7.60
2017-04-21T04:13:17.237Z,7.60
2017-04-21T04:14:16.163Z,7.50
2017-04-21T04:15:15.126Z,7.50
2017-04-21T04:16:14.060Z,7.60
2017-04-21T04:17:13.026Z,7.60
2017-04-21T04:18:11.992Z,7.60
2017-04-21T04:19:10.962Z,7.60
2017-04-21T04:20:09.911Z,7.60
2017-04-21T04:21:08.889Z,7.50
2017-04-21T04:22:07.808Z,7.60
2017-04-21T04:23:06.773Z,7.60
2017-04-21T04:24:05.736Z,7.60
2017-04-21T04:25:04.660Z,7.60
2017-04-21T04:26:03.592Z,7.60
2017-04-21T04:27:02.624Z,7.60
2017-04-21T04:28:01.529Z,7.60
2017-04-21T04:29:00.457Z,7.60
2017-04-21T04:29:59.391Z,7.60
2017-04-21T04:30:58.351Z,7.60
2017-04-21T04:31:57.300Z,7.70
2017-04-21T04:32:56.276Z,7.60
2017-04-21T04:33:55.231Z,7.70
2017-04-21T04:34:54.123Z,7.70
2017-04-21T04:35:53.326Z,7.70
2017-04-21T04:36:52.264Z,7.70
2017-04-21T04:37:51.184Z,7.70
2017-04-21T04:38:50.202Z,7.80
2017-04-21T04:39:49.127Z,7.70
2017-04-21T04:40:48.877Z,7.70
2017-04-21T04:41:47.798Z,7.70
2017-04-21T04:42:46.752Z,7.70
2017-04-21T04:43:45.660Z,7.70
2017-04-21T04:44:44.632Z,7.70
2017-04-21T04:45:43.547Z,7.70
2017-04-21T04:46:42.468Z,7.70
2017-04-21T04:47:41.417Z,7.70
2017-04-21T04:48:40.341Z,7.70
2017-04-21T04:49:39.263Z,7.70
2017-04-21T04:50:38.172Z,7.80
2017-04-21T04:51:37.276Z,7.80
2017-04-21T04:52:36.188Z,7.80
2017-04-21T04:53:35.231Z,7.80
2017-04-21T04:54:34.171Z,7.80
2017-04-21T04:55:33.096Z,7.80
2017-04-21T04:56:32.091Z,7.80
2017-04-21T04:57:31.132Z,7.90
2017-04-21T04:58:30.167Z,7.80
2017-04-21T04:59:29.109Z,7.80
2017-04-21T05:00:28.025Z,7.80
2017-04-21T05:01:26.948Z,7.80
2017-04-21T05:02:26.813Z,7.80
2017-04-21T05:03:25.735Z,7.80
2017-04-21T05:04:25.383Z,7.70
2017-04-21T05:05:24.335Z,7.70
2017-04-21T05:06:23.284Z,7.70
2017-04-21T05:07:23.000Z,7.60
2017-04-21T05:08:21.957Z,7.70
2017-04-21T05:09:20.877Z,7.70
2017-04-21T05:10:19.888Z,7.80
2017-04-21T05:11:18.904Z,7.80
2017-04-21T05:12:17.861Z,7.80
2017-04-21T05:13:16.936Z,7.80
2017-04-21T05:14:15.928Z,7.80
2017-04-21T05:15:14.904Z,7.80
2017-04-21T05:16:13.811Z,7.90
2017-04-21T05:17:12.760Z,7.80
2017-04-21T05:18:11.684Z,7.80
2017-04-21T05:19:10.616Z,7.80
2017-04-21T05:20:09.608Z,7.80
2017-04-21T05:21:08.617Z,7.90
2017-04-21T05:22:07.560Z,7.90
2017-04-21T05:23:06.525Z,7.90
2017-04-21T05:24:05.465Z,7.90
2017-04-21T05:25:04.405Z,7.90
2017-04-21T05:26:03.392Z,7.90
2017-04-21T05:27:02.325Z,8.10
2017-04-21T05:28:01.412Z,7.90
2017-04-21T05:29:00.457Z,7.90
2017-04-21T05:29:59.387Z,7.90
2017-04-21T05:30:58.355Z,8.00
2017-04-21T05:31:57.310Z,8.00
2017-04-21T05:32:56.250Z,8.00
2017-04-21T05:33:55.196Z,8.10
2017-04-21T05:34:54.978Z,8.10
2017-04-21T05:35:53.970Z,8.10
2017-04-21T05:36:52.906Z,8.20
2017-04-21T05:37:51.848Z,8.20
2017-04-21T05:38:51.551Z,8.20
2017-04-21T05:39:50.595Z,8.20
2017-04-21T05:40:49.682Z,8.20
2017-04-21T05:41:48.688Z,8.20
2017-04-21T05:42:48.366Z,8.10
2017-04-21T05:43:47.599Z,8.10
2017-04-21T05:44:46.551Z,8.10
2017-04-21T05:45:45.926Z,8.10
2017-04-21T05:46:44.932Z,8.10
2017-04-21T05:47:43.889Z,8.10
2017-04-21T05:48:42.906Z,8.10
2017-04-21T05:49:42.267Z,8.10
2017-04-21T05:50:41.179Z,8.20
2017-04-21T05:51:40.138Z,8.20
2017-04-21T05:52:39.153Z,8.20
2017-04-21T05:53:38.140Z,8.10
2017-04-21T05:54:37.088Z,8.10
2017-04-21T05:55:36.043Z,8.10
2017-04-21T05:56:34.980Z,8.10
2017-04-21T05:57:33.949Z,8.20
2017-04-21T05:58:33.780Z,8.10
2017-04-21T05:59:33.939Z,8.20
2017-04-21T06:00:32.953Z,8.20
2017-04-21T06:01:32.108Z,8.20
2017-04-21T06:02:31.064Z,8.20
2017-04-21T06:03:30.037Z,8.30
2017-04-21T06:04:28.997Z,8.30
2017-04-21T06:05:27.956Z,8.30
2017-04-21T06:06:26.946Z,8.30
2017-04-21T06:07:25.899Z,8.40
2017-04-21T06:08:24.814Z,8.40
2017-04-21T06:09:24.501Z,8.40
2017-04-21T06:10:24.227Z,8.40
2017-04-21T06:11:23.184Z,8.50
2017-04-21T06:13:21.404Z,8.50
2017-04-21T06:14:20.366Z,8.50
2017-04-21T06:15:19.330Z,8.50
2017-04-21T06:16:19.030Z,8.50
2017-04-21T06:17:17.949Z,8.60
2017-04-21T06:18:16.883Z,8.60
2017-04-21T06:19:15.844Z,8.50
2017-04-21T06:20:14.855Z,8.60
2017-04-21T06:21:14.555Z,8.60
2017-04-21T06:22:14.332Z,8.50
2017-04-21T06:23:13.327Z,8.60
2017-04-21T06:24:12.317Z,8.30
2017-04-21T06:25:12.044Z,8.60
2017-04-21T06:26:10.981Z,8.70
2017-04-21T06:27:09.991Z,8.70
2017-04-21T06:28:09.007Z,8.70
2017-04-21T06:29:07.937Z,8.80
2017-04-21T06:30:06.870Z,8.80
2017-04-21T06:31:05.836Z,8.80
2017-04-21T06:32:04.785Z,8.80
2017-04-21T06:33:03.739Z,8.80
2017-04-21T06:34:02.684Z,8.90
2017-04-21T06:35:01.621Z,8.90
2017-04-21T06:36:00.525Z,8.90
2017-04-21T06:37:00.200Z,8.90
2017-04-21T06:37:59.128Z,8.90
2017-04-21T06:38:58.085Z,8.90
2017-04-21T06:39:56.410Z,8.90
2017-04-21T06:40:55.396Z,8.90
2017-04-21T06:41:54.391Z,8.90
2017-04-21T06:42:53.374Z,9.00
2017-04-21T06:44:59.971Z,9.00
2017-04-21T06:45:58.906Z,9.00
2017-04-21T06:46:57.913Z,9.00
2017-04-21T06:47:56.907Z,9.00
2017-04-21T06:48:56.591Z,9.00
2017-04-21T06:49:55.556Z,9.00
2017-04-21T06:50:54.496Z,9.10
2017-04-21T06:51:53.429Z,9.10
2017-04-21T06:52:52.378Z,9.10
2017-04-21T06:53:51.523Z,9.10
2017-04-21T06:54:51.239Z,9.10
2017-04-21T06:55:50.196Z,9.20
2017-04-21T06:56:49.935Z,9.20
2017-04-21T06:57:48.892Z,9.20
2017-04-21T06:58:48.617Z,9.20
2017-04-21T06:59:47.769Z,9.30
2017-04-21T07:00:47.452Z,9.20
2017-04-21T07:01:47.166Z,9.20
2017-04-21T07:02:56.777Z,9.20
2017-04-21T07:03:55.794Z,9.30
2017-04-21T07:04:54.729Z,9.30
2017-04-21T07:05:53.692Z,9.30
2017-04-21T07:06:52.624Z,9.40
2017-04-21T07:07:52.475Z,9.40
2017-04-21T07:08:51.468Z,9.40
2017-04-21T07:09:50.392Z,9.40
2017-04-21T07:10:50.069Z,8.60
2017-04-21T07:11:49.023Z,9.50
2017-04-21T07:12:47.961Z,9.60
2017-04-21T07:13:47.697Z,9.50
2017-04-21T07:14:46.627Z,9.50
2017-04-21T07:15:45.577Z,9.50
2017-04-21T07:16:44.541Z,9.40
2017-04-21T07:17:43.497Z,9.40
2017-04-21T07:18:42.424Z,9.40
2017-04-21T07:19:41.490Z,9.40
2017-04-21T07:20:40.535Z,9.30
2017-04-21T07:21:40.424Z,9.30
2017-04-21T07:22:39.469Z,9.40
2017-04-21T07:23:38.495Z,9.30
2017-04-21T07:24:38.292Z,9.30
2017-04-21T07:25:38.020Z,9.30
2017-04-21T07:26:37.036Z,9.30
2017-04-21T07:27:36.066Z,9.30
2017-04-21T07:28:35.136Z,9.30
2017-04-21T07:29:34.085Z,9.30
2017-04-21T07:30:33.151Z,9.30
2017-04-21T07:31:32.089Z,9.40
2017-04-21T07:32:31.807Z,9.40
2017-04-21T07:33:31.537Z,9.40
2017-04-21T07:34:30.500Z,9.50
2017-04-21T07:35:29.520Z,9.50
2017-04-21T07:36:28.462Z,9.50
2017-04-21T07:37:28.134Z,9.40
2017-04-21T07:38:27.200Z,9.50
2017-04-21T07:39:26.911Z,9.50
2017-04-21T07:40:25.883Z,9.50
2017-04-21T07:41:24.839Z,9.50
2017-04-21T07:42:23.785Z,9.50
2017-04-21T07:43:23.467Z,9.50
2017-04-21T07:44:22.418Z,9.50
2017-04-21T07:45:21.500Z,9.40
2017-04-21T07:46:20.483Z,9.40
2017-04-21T07:47:19.462Z,9.40
2017-04-21T07:48:18.443Z,9.40
2017-04-21T07:49:17.371Z,9.40
2017-04-21T07:50:16.442Z,9.40
2017-04-21T07:51:15.390Z,9.50
2017-04-21T07:52:14.319Z,9.60
2017-04-21T07:53:14.016Z,9.60
2017-04-21T07:54:13.920Z,9.70
2017-04-21T07:55:13.595Z,9.70
2017-04-21T07:56:12.583Z,9.70
2017-04-21T07:57:11.575Z,9.70
2017-04-21T07:58:11.309Z,9.80
2017-04-21T07:59:10.291Z,9.90
2017-04-21T08:00:09.335Z,10.00
2017-04-21T08:01:08.283Z,10.10
2017-04-21T08:02:07.304Z,10.10
2017-04-21T08:03:06.259Z,10.20
2017-04-21T08:04:05.269Z,10.20
2017-04-21T08:05:04.948Z,10.20
2017-04-21T08:06:03.904Z,10.30
2017-04-21T08:07:02.884Z,10.30
2017-04-21T08:08:01.892Z,10.30
2017-04-21T08:09:59.869Z,10.30
2017-04-21T08:10:58.803Z,10.40
2017-04-21T08:11:57.824Z,10.40
2017-04-21T08:12:56.763Z,10.50
2017-04-21T08:13:55.766Z,10.50
2017-04-21T08:14:54.734Z,10.60
2017-04-21T08:15:53.692Z,10.60
2017-04-21T08:16:53.390Z,10.60
2017-04-21T08:17:53.122Z,10.60
2017-04-21T08:18:52.174Z,10.70
2017-04-21T08:19:51.905Z,10.70
2017-04-21T08:20:51.060Z,10.90
2017-04-21T08:21:50.793Z,10.80
2017-04-21T08:22:49.792Z,10.70
2017-04-21T08:23:48.753Z,10.70
2017-04-21T08:24:47.816Z,10.70
2017-04-21T08:25:47.587Z,10.60
2017-04-21T08:26:46.519Z,10.60
2017-04-21T08:27:45.476Z,10.60
2017-04-21T08:28:44.453Z,10.70
2017-04-21T08:29:44.124Z,10.60
2017-04-21T08:30:43.421Z,10.70
2017-04-21T08:31:42.411Z,10.70
2017-04-21T08:32:41.393Z,10.60
2017-04-21T08:33:40.392Z,10.70
2017-04-21T08:34:40.092Z,10.80
2017-04-21T08:35:39.800Z,10.80
2017-04-21T08:36:38.759Z,11.00
2017-04-21T08:37:37.748Z,11.00
2017-04-21T08:38:37.458Z,10.90
2017-04-21T08:39:37.137Z,10.80
2017-04-21T08:40:36.128Z,10.90
2017-04-21T08:41:35.897Z,10.80
2017-04-21T08:42:34.925Z,10.90
2017-04-21T08:43:34.795Z,10.90
2017-04-21T08:44:33.732Z,10.90
2017-04-21T08:45:32.663Z,10.90
2017-04-21T08:46:31.664Z,11.00
2017-04-21T08:47:30.623Z,11.10
2017-04-21T08:48:29.607Z,11.20
2017-04-21T08:49:28.551Z,11.20
2017-04-21T08:50:27.611Z,11.20
2017-04-21T08:51:26.545Z,11.10
2017-04-21T08:52:25.514Z,11.00
2017-04-21T08:53:24.493Z,11.00
2017-04-21T08:54:23.448Z,11.00
2017-04-21T08:55:22.403Z,11.00
2017-04-21T08:56:22.117Z,11.10
2017-04-21T08:57:21.055Z,11.20
2017-04-21T08:58:20.107Z,11.30
2017-04-21T08:59:19.073Z,11.40
2017-04-21T09:00:17.228Z,11.40
2017-04-21T09:01:16.225Z,11.60
2017-04-21T09:02:15.241Z,11.60
2017-04-21T09:03:14.205Z,11.60
2017-04-21T09:04:13.124Z,11.60
2017-04-21T09:05:12.047Z,11.60
2017-04-21T09:06:11.002Z,11.60
2017-04-21T09:07:10.708Z,11.60
2017-04-21T09:08:09.756Z,11.70
2017-04-21T09:09:08.695Z,11.80
2017-04-21T09:10:07.822Z,11.80
2017-04-21T09:11:06.940Z,11.90
2017-04-21T09:12:06.813Z,11.90
2017-04-21T09:13:05.759Z,12.10
2017-04-21T09:14:04.766Z,12.20
2017-04-21T09:15:03.710Z,12.30
2017-04-21T09:16:03.673Z,12.20
2017-04-21T09:18:01.571Z,12.50
2017-04-21T09:19:00.535Z,12.50
2017-04-21T09:19:59.664Z,12.50
2017-04-21T09:20:58.592Z,12.50
2017-04-21T09:21:57.532Z,12.50
2017-04-21T09:22:56.544Z,12.60
2017-04-21T09:23:55.486Z,12.70
2017-04-21T09:24:54.468Z,12.80
2017-04-21T09:25:53.397Z,12.90
2017-04-21T09:26:52.377Z,12.90
2017-04-21T09:27:51.452Z,12.90
2017-04-21T09:28:50.422Z,13.00
2017-04-21T09:29:49.365Z,13.10
2017-04-21T09:30:48.346Z,13.10
2017-04-21T09:31:47.319Z,13.10
2017-04-21T09:32:46.313Z,13.00
2017-04-21T09:33:45.348Z,12.90
2017-04-21T09:35:36.084Z,13.00
2017-04-21T09:35:43.336Z,13.00
2017-04-21T09:36:42.402Z,13.10
2017-04-21T09:37:41.359Z,13.20
2017-04-21T09:38:40.472Z,13.30
2017-04-21T09:39:39.441Z,13.50
2017-04-21T09:40:38.427Z,13.50
2017-04-21T09:41:37.337Z,13.60
2017-04-21T09:42:36.336Z,13.60
2017-04-21T09:43:35.341Z,13.70
2017-04-21T09:44:34.452Z,13.70
2017-04-21T09:45:33.448Z,13.70
2017-04-21T09:46:32.460Z,13.70
2017-04-21T09:47:32.193Z,13.60
2017-04-21T09:48:31.668Z,13.50
2017-04-21T09:49:30.606Z,13.50
2017-04-21T09:50:29.693Z,13.50
2017-04-21T09:51:28.683Z,13.60
2017-04-21T09:53:26.625Z,13.60
2017-04-21T09:54:04.146Z,13.60
2017-04-21T09:57:02.327Z,13.60
2017-04-21T09:59:11.951Z,13.50
2017-04-21T09:59:18.408Z,13.40
2017-04-21T10:00:19.653Z,13.40
2017-04-21T10:01:21.893Z,13.50
2017-04-21T10:02:01.043Z,13.40
2017-04-21T10:02:28.138Z,13.60
2017-04-21T10:06:12.333Z,13.30
2017-04-21T10:06:33.789Z,13.20
2017-04-21T10:07:24.260Z,13.10
2017-04-21T10:07:56.538Z,13.20
2017-04-21T10:08:09.167Z,13.10
2017-04-21T10:08:11.830Z,13.00
2017-04-21T10:08:20.828Z,13.30
2017-04-21T10:08:21.616Z,13.00
2017-04-21T10:09:11.678Z,13.00
2017-04-21T10:10:10.621Z,13.00
2017-04-21T10:11:09.656Z,13.00
2017-04-21T10:12:08.660Z,13.00
2017-04-21T10:13:08.411Z,13.10
2017-04-21T10:14:07.374Z,13.20
2017-04-21T10:15:06.322Z,13.10
2017-04-21T10:16:05.356Z,13.10
2017-04-21T10:17:04.365Z,13.10
2017-04-21T10:18:03.387Z,13.20
2017-04-21T10:19:03.098Z,13.20
2017-04-21T10:20:02.025Z,13.40
2017-04-21T10:21:01.068Z,13.50
2017-04-21T10:22:00.060Z,13.50
2017-04-21T10:22:59.176Z,13.50
2017-04-21T10:23:58.163Z,13.60
2017-04-21T10:24:57.248Z,13.70
2017-04-21T10:25:56.230Z,13.70
2017-04-21T10:26:55.185Z,13.80
2017-04-21T10:27:54.188Z,13.80
2017-04-21T10:28:53.152Z,13.80
2017-04-21T10:29:52.348Z,13.90
2017-04-21T10:30:51.283Z,13.90
2017-04-21T10:31:51.055Z,13.90
2017-04-21T10:32:50.144Z,14.00
2017-04-21T10:33:49.101Z,14.10
2017-04-21T10:34:48.207Z,14.20
2017-04-21T10:35:47.210Z,14.30
2017-04-21T10:36:46.872Z,14.30
2017-04-21T10:37:45.863Z,14.50
2017-04-21T10:38:44.800Z,14.60
2017-04-21T10:39:43.777Z,14.60
2017-04-21T10:40:42.762Z,14.60
2017-04-21T10:41:41.789Z,14.60
2017-04-21T10:42:40.698Z,14.60
2017-04-21T10:43:39.675Z,14.50
2017-04-21T10:44:38.669Z,14.50
2017-04-21T10:45:38.352Z,14.50
2017-04-21T10:46:37.278Z,14.50
2017-04-21T10:47:36.282Z,14.50
2017-04-21T10:48:35.316Z,14.40
2017-04-21T10:49:34.308Z,14.30
2017-04-21T10:50:33.335Z,14.30
2017-04-21T10:51:32.434Z,14.30
2017-04-21T10:52:31.462Z,14.40
2017-04-21T10:53:31.258Z,14.40
2017-04-21T10:54:30.924Z,14.50
2017-04-21T10:55:29.901Z,14.60
2017-04-21T10:56:28.907Z,14.70
2017-04-21T10:57:27.829Z,14.70
2017-04-21T10:58:26.744Z,14.70
2017-04-21T10:59:25.708Z,14.80
2017-04-21T11:00:24.678Z,14.90
2017-04-21T11:01:23.674Z,14.90
2017-04-21T11:02:22.907Z,14.90
2017-04-21T11:03:21.888Z,15.00
2017-04-21T11:04:20.905Z,15.00
2017-04-21T11:05:19.915Z,14.90
2017-04-21T11:06:18.848Z,14.90
2017-04-21T11:07:18.556Z,14.80
2017-04-21T11:08:17.567Z,14.90
2017-04-21T11:09:16.845Z,15.00
2017-04-21T11:10:15.812Z,15.00
2017-04-21T11:11:14.837Z,15.00
2017-04-21T11:12:13.940Z,14.90
2017-04-21T11:13:12.883Z,14.90
2017-04-21T11:14:11.856Z,14.90
2017-04-21T11:15:10.807Z,14.80
2017-04-21T11:17:09.296Z,14.80
2017-04-21T11:18:08.350Z,14.70
2017-04-21T11:20:06.735Z,14.80
2017-04-21T11:21:05.680Z,14.80
2017-04-21T11:22:04.640Z,14.80
2017-04-21T11:23:03.611Z,14.70
2017-04-21T11:24:02.587Z,14.60
2017-04-21T11:25:01.593Z,14.50
2017-04-21T11:26:00.605Z,14.50
2017-04-21T11:26:59.543Z,14.40
2017-04-21T11:27:58.660Z,14.50
2017-04-21T11:28:57.655Z,14.50
2017-04-21T11:29:56.594Z,14.60
2017-04-21T11:30:55.624Z,14.60
2017-04-21T11:31:54.645Z,14.70
2017-04-21T11:32:53.611Z,14.70
2017-04-21T11:33:52.601Z,14.80
2017-04-21T11:34:51.678Z,14.90
2017-04-21T11:35:50.622Z,15.00
2017-04-21T11:36:49.724Z,14.90
2017-04-21T11:37:48.747Z,14.80
2017-04-21T11:38:48.444Z,14.70
2017-04-21T11:39:48.131Z,14.80
2017-04-21T11:40:47.086Z,14.90
2017-04-21T11:41:46.199Z,14.90
2017-04-21T11:43:44.430Z,14.80
2017-04-21T11:44:43.410Z,14.80
2017-04-21T11:45:42.447Z,14.80
2017-04-21T11:46:41.598Z,14.80
2017-04-21T11:47:40.707Z,14.80
2017-04-21T11:49:39.219Z,14.70
2017-04-21T11:50:38.379Z,14.70
2017-04-21T11:51:38.101Z,14.60
2017-04-21T11:52:37.167Z,14.60
2017-04-21T11:53:36.182Z,14.60
2017-04-21T11:54:35.138Z,14.60
2017-04-21T11:55:34.811Z,14.40
2017-04-21T11:56:33.808Z,14.40
2017-04-21T11:58:33.059Z,14.40
2017-04-21T11:59:32.107Z,14.40
2017-04-21T12:00:31.147Z,14.50
2017-04-21T12:01:30.123Z,14.50
2017-04-21T12:02:29.206Z,14.40
2017-04-21T12:03:28.201Z,14.40
2017-04-21T12:04:27.159Z,16.00
2017-04-21T12:05:26.256Z,14.40
2017-04-21T12:06:25.314Z,14.40
2017-04-21T12:07:24.370Z,14.40
2017-04-21T12:08:23.375Z,14.40
2017-04-21T12:09:22.338Z,14.40
2017-04-21T12:10:21.321Z,14.30
2017-04-21T12:11:20.566Z,14.30
2017-04-21T12:12:19.512Z,14.30
2017-04-21T12:13:18.483Z,14.40
2017-04-21T12:14:17.463Z,14.30
2017-04-21T12:15:16.436Z,14.30
2017-04-21T12:16:15.426Z,14.30
2017-04-21T12:17:14.375Z,14.20
2017-04-21T12:18:13.329Z,14.10
2017-04-21T12:19:12.268Z,14.10
2017-04-21T12:20:11.548Z,14.00
2017-04-21T12:21:11.219Z,13.90
2017-04-21T12:22:10.184Z,13.90
2017-04-21T12:23:09.137Z,13.80
2017-04-21T12:24:08.094Z,13.70
2017-04-21T12:25:07.867Z,13.60
2017-04-21T12:26:06.824Z,13.70
2017-04-21T12:27:05.953Z,13.70
2017-04-21T12:28:05.046Z,13.70
2017-04-21T12:29:04.837Z,13.70
2017-04-21T12:31:03.910Z,13.70
2017-04-21T12:32:02.939Z,13.80
2017-04-21T12:33:01.952Z,13.80
2017-04-21T12:34:00.934Z,13.80
2017-04-21T12:34:59.925Z,13.80
2017-04-21T12:35:58.888Z,13.80
2017-04-21T12:36:57.901Z,12.10
2017-04-21T12:37:56.843Z,13.80
2017-04-21T12:38:55.791Z,13.80
2017-04-21T12:39:55.504Z,13.80
2017-04-21T12:40:54.493Z,13.90
2017-04-21T12:41:53.505Z,13.90
2017-04-21T12:42:52.608Z,13.90
2017-04-21T12:43:51.586Z,13.80
2017-04-21T12:44:50.533Z,13.70
2017-04-21T12:45:49.516Z,13.70
2017-04-21T12:46:48.466Z,13.60
2017-04-21T12:47:48.267Z,13.60
2017-04-21T12:48:47.981Z,13.50
2017-04-21T12:49:47.685Z,13.40
2017-04-21T12:50:47.373Z,13.30
2017-04-21T12:51:47.224Z,13.20
2017-04-21T12:52:47.048Z,13.20
2017-04-21T12:53:45.981Z,13.20
2017-04-21T12:54:44.980Z,13.20
2017-04-21T12:55:43.920Z,13.20
2017-04-21T12:56:43.679Z,13.10
2017-04-21T12:57:42.676Z,13.20
2017-04-21T12:58:41.645Z,13.10
2017-04-21T12:59:40.605Z,13.10
2017-04-21T13:00:39.604Z,13.10
2017-04-21T13:01:38.669Z,13.10
2017-04-21T13:02:37.674Z,13.10
2017-04-21T13:03:36.680Z,13.10
2017-04-21T13:04:35.600Z,13.00
2017-04-21T13:05:34.650Z,12.90
2017-04-21T13:06:33.585Z,12.80
2017-04-21T13:07:32.512Z,12.80
2017-04-21T13:08:31.709Z,12.70